createdAt,value
2023-04-16T00:00:04.000Z,288.7908113392015
2023-04-16T00:01:07.000Z,283.9130009775201
2023-04-16T00:02:10.000Z,283.9130009775201
2023-04-16T00:03:13.000Z,286.3519061583608
2023-04-16T00:04:16.000Z,284.8885630498564
2023-04-16T00:05:19.000Z,282.9374389051838
2023-04-16T00:06:22.000Z,286.3519061583608
2023-04-16T00:07:25.000Z,286.83968719452895
2023-04-16T00:08:28.000Z,286.83968719452895
2023-04-16T00:09:30.000Z,285.3763440860245
2023-04-16T00:10:33.000Z,286.83968719452895
2023-04-16T00:11:36.000Z,285.86412512219266
2023-04-16T00:12:39.000Z,287.3274682306971
2023-04-16T00:13:42.000Z,284.8885630498564
2023-04-16T00:14:45.000Z,285.3763440860245
2023-04-16T00:15:48.000Z,283.42521994135194
2023-04-16T00:16:51.000Z,288.3030303030334
2023-04-16T00:17:53.000Z,289.27859237536967
2023-04-16T00:18:56.000Z,289.27859237536967
2023-04-16T00:20:00.000Z,285.86412512219266
2023-04-16T00:21:03.000Z,285.3763440860245
2023-04-16T00:22:06.000Z,286.83968719452895
2023-04-16T00:23:09.000Z,287.3274682306971
2023-04-16T00:24:12.000Z,286.3519061583608
2023-04-16T00:25:14.000Z,286.83968719452895
2023-04-16T00:26:17.000Z,285.86412512219266
2023-04-16T00:27:20.000Z,281.9618768328475
2023-04-16T00:28:23.000Z,284.40078201368823
2023-04-16T00:29:26.000Z,285.3763440860245
2023-04-16T00:30:28.000Z,284.40078201368823
2023-04-16T00:31:32.000Z,282.9374389051838
2023-04-16T00:32:34.000Z,281.47409579667936
2023-04-16T00:33:37.000Z,285.3763440860245
2023-04-16T00:34:40.000Z,287.3274682306971
2023-04-16T00:35:43.000Z,287.3274682306971
2023-04-16T00:36:46.000Z,287.3274682306971
2023-04-16T00:37:49.000Z,283.9130009775201
2023-04-16T00:38:52.000Z,287.3274682306971
2023-04-16T00:39:55.000Z,287.81524926686524
2023-04-16T00:40:59.000Z,287.3274682306971
2023-04-16T00:42:02.000Z,286.3519061583608
2023-04-16T00:43:05.000Z,287.3274682306971
2023-04-16T00:44:08.000Z,287.3274682306971
2023-04-16T00:45:11.000Z,285.3763440860245
2023-04-16T00:46:19.000Z,285.86412512219266
2023-04-16T00:47:22.000Z,285.3763440860245
2023-04-16T00:48:25.000Z,284.40078201368823
2023-04-16T00:49:27.000Z,280.01075268817493
2023-04-16T00:50:30.000Z,282.44965786901565
2023-04-16T00:51:33.000Z,285.3763440860245
2023-04-16T00:52:36.000Z,285.86412512219266
2023-04-16T00:53:39.000Z,285.86412512219266
2023-04-16T00:54:42.000Z,283.9130009775201
2023-04-16T00:55:45.000Z,287.81524926686524
2023-04-16T00:56:47.000Z,288.7908113392015
2023-04-16T00:57:50.000Z,286.83968719452895
2023-04-16T00:58:53.000Z,287.81524926686524
2023-04-16T00:59:56.000Z,288.3030303030334
2023-04-16T01:00:59.000Z,287.81524926686524
2023-04-16T01:02:02.000Z,287.81524926686524
2023-04-16T01:03:05.000Z,288.7908113392015
2023-04-16T01:04:08.000Z,287.81524926686524
2023-04-16T01:05:10.000Z,280.9863147605112
2023-04-16T01:06:13.000Z,283.42521994135194
2023-04-16T01:07:16.000Z,283.42521994135194
2023-04-16T01:08:19.000Z,285.86412512219266
2023-04-16T01:09:22.000Z,285.86412512219266
2023-04-16T01:10:25.000Z,283.42521994135194
2023-04-16T01:11:28.000Z,286.3519061583608
2023-04-16T01:12:31.000Z,286.3519061583608
2023-04-16T01:13:34.000Z,286.3519061583608
2023-04-16T01:14:36.000Z,285.86412512219266
2023-04-16T01:15:39.000Z,282.9374389051838
2023-04-16T01:16:42.000Z,287.3274682306971
2023-04-16T01:17:45.000Z,284.40078201368823
2023-04-16T01:18:48.000Z,284.40078201368823
2023-04-16T01:19:51.000Z,284.40078201368823
2023-04-16T01:20:54.000Z,283.9130009775201
2023-04-16T01:21:56.000Z,286.83968719452895
2023-04-16T01:22:59.000Z,287.81524926686524
2023-04-16T01:24:02.000Z,289.7663734115378
2023-04-16T01:25:05.000Z,288.3030303030334
2023-04-16T01:26:08.000Z,287.3274682306971
2023-04-16T01:27:11.000Z,284.40078201368823
2023-04-16T01:28:14.000Z,285.86412512219266
2023-04-16T01:29:16.000Z,286.3519061583608
2023-04-16T01:30:19.000Z,285.86412512219266
2023-04-16T01:31:22.000Z,286.3519061583608
2023-04-16T01:32:25.000Z,280.4985337243431
2023-04-16T01:33:28.000Z,286.3519061583608
2023-04-16T01:34:31.000Z,285.3763440860245
2023-04-16T01:35:34.000Z,286.3519061583608
2023-04-16T01:36:37.000Z,286.3519061583608
2023-04-16T01:37:40.000Z,281.9618768328475
2023-04-16T01:38:43.000Z,284.40078201368823
2023-04-16T01:39:46.000Z,287.3274682306971
2023-04-16T01:40:49.000Z,287.81524926686524
2023-04-16T01:41:52.000Z,288.7908113392015
2023-04-16T01:42:55.000Z,287.81524926686524
2023-04-16T01:43:58.000Z,286.3519061583608
2023-04-16T01:45:01.000Z,284.8885630498564
2023-04-16T01:46:04.000Z,287.3274682306971
2023-04-16T01:47:07.000Z,288.3030303030334
2023-04-16T01:48:10.000Z,287.3274682306971
2023-04-16T01:49:13.000Z,287.3274682306971
2023-04-16T01:50:16.000Z,285.3763440860245
2023-04-16T01:51:19.000Z,286.83968719452895
2023-04-16T01:52:22.000Z,283.9130009775201
2023-04-16T01:53:25.000Z,283.9130009775201
2023-04-16T01:54:28.000Z,285.3763440860245
2023-04-16T01:55:30.000Z,285.3763440860245
2023-04-16T01:56:33.000Z,285.3763440860245
2023-04-16T01:57:36.000Z,283.9130009775201
2023-04-16T01:58:39.000Z,285.86412512219266
2023-04-16T01:59:42.000Z,285.3763440860245
2023-04-16T02:00:45.000Z,287.3274682306971
2023-04-16T02:01:48.000Z,285.86412512219266
2023-04-16T02:02:50.000Z,286.83968719452895
2023-04-16T02:03:53.000Z,287.3274682306971
2023-04-16T02:04:56.000Z,288.3030303030334
2023-04-16T02:05:59.000Z,286.3519061583608
2023-04-16T02:07:02.000Z,284.8885630498564
2023-04-16T02:08:05.000Z,286.3519061583608
2023-04-16T02:09:07.000Z,287.81524926686524
2023-04-16T02:10:10.000Z,288.3030303030334
2023-04-16T02:11:13.000Z,281.47409579667936
2023-04-16T02:12:16.000Z,286.3519061583608
2023-04-16T02:13:19.000Z,286.3519061583608
2023-04-16T02:14:22.000Z,286.3519061583608
2023-04-16T02:15:25.000Z,282.9374389051838
2023-04-16T02:16:28.000Z,285.3763440860245
2023-04-16T02:17:31.000Z,287.81524926686524
2023-04-16T02:18:33.000Z,285.3763440860245
2023-04-16T02:19:36.000Z,284.8885630498564
2023-04-16T02:20:39.000Z,285.3763440860245
2023-04-16T02:21:42.000Z,285.3763440860245
2023-04-16T02:22:45.000Z,282.44965786901565
2023-04-16T02:23:48.000Z,283.9130009775201
2023-04-16T02:24:51.000Z,284.40078201368823
2023-04-16T02:25:53.000Z,284.8885630498564
2023-04-16T02:26:56.000Z,286.3519061583608
2023-04-16T02:27:59.000Z,287.81524926686524
2023-04-16T02:29:03.000Z,287.3274682306971
2023-04-16T02:30:06.000Z,286.83968719452895
2023-04-16T02:31:09.000Z,286.83968719452895
2023-04-16T02:32:12.000Z,287.3274682306971
2023-04-16T02:33:15.000Z,285.3763440860245
2023-04-16T02:34:18.000Z,285.86412512219266
2023-04-16T02:35:20.000Z,285.86412512219266
2023-04-16T02:36:23.000Z,285.86412512219266
2023-04-16T02:37:26.000Z,285.86412512219266
2023-04-16T02:38:29.000Z,281.9618768328475
2023-04-16T02:39:32.000Z,282.9374389051838
2023-04-16T02:40:35.000Z,282.9374389051838
2023-04-16T02:41:38.000Z,285.3763440860245
2023-04-16T02:42:41.000Z,286.3519061583608
2023-04-16T02:43:43.000Z,282.9374389051838
2023-04-16T02:44:47.000Z,287.3274682306971
2023-04-16T02:45:50.000Z,287.3274682306971
2023-04-16T02:46:52.000Z,286.83968719452895
2023-04-16T02:47:56.000Z,284.8885630498564
2023-04-16T02:48:58.000Z,283.9130009775201
2023-04-16T02:50:01.000Z,286.83968719452895
2023-04-16T02:51:05.000Z,287.3274682306971
2023-04-16T02:52:07.000Z,286.3519061583608
2023-04-16T02:53:10.000Z,286.3519061583608
2023-04-16T02:54:13.000Z,287.3274682306971
2023-04-16T02:55:16.000Z,283.42521994135194
2023-04-16T02:56:19.000Z,286.83968719452895
2023-04-16T02:57:27.000Z,287.81524926686524
2023-04-16T02:58:30.000Z,284.8885630498564
2023-04-16T02:59:33.000Z,282.9374389051838
2023-04-16T03:00:36.000Z,285.3763440860245
2023-04-16T03:01:39.000Z,284.40078201368823
2023-04-16T03:02:42.000Z,285.86412512219266
2023-04-16T03:03:45.000Z,285.86412512219266
2023-04-16T03:04:48.000Z,286.3519061583608
2023-04-16T03:05:51.000Z,285.86412512219266
2023-04-16T03:06:59.000Z,283.9130009775201
2023-04-16T03:08:02.000Z,285.3763440860245
2023-04-16T03:09:05.000Z,286.83968719452895
2023-04-16T03:10:08.000Z,288.7908113392015
2023-04-16T03:11:12.000Z,287.81524926686524
2023-04-16T03:12:15.000Z,288.3030303030334
2023-04-16T03:13:18.000Z,282.9374389051838
2023-04-16T03:14:21.000Z,285.86412512219266
2023-04-16T03:15:24.000Z,285.86412512219266
2023-04-16T03:16:27.000Z,285.3763440860245
2023-04-16T03:17:29.000Z,285.86412512219266
2023-04-16T03:18:32.000Z,282.44965786901565
2023-04-16T03:19:40.000Z,283.9130009775201
2023-04-16T03:20:43.000Z,285.3763440860245
2023-04-16T03:21:46.000Z,285.3763440860245
2023-04-16T03:22:49.000Z,285.3763440860245
2023-04-16T03:23:52.000Z,285.3763440860245
2023-04-16T03:24:55.000Z,278.5474095796705
2023-04-16T03:25:58.000Z,286.83968719452895
2023-04-16T03:27:01.000Z,286.3519061583608
2023-04-16T03:28:04.000Z,286.83968719452895
2023-04-16T03:29:07.000Z,285.3763440860245
2023-04-16T03:30:10.000Z,286.3519061583608
2023-04-16T03:31:13.000Z,286.3519061583608
2023-04-16T03:32:16.000Z,283.9130009775201
2023-04-16T03:33:19.000Z,285.3763440860245
2023-04-16T03:34:22.000Z,285.86412512219266
2023-04-16T03:35:25.000Z,285.3763440860245
2023-04-16T03:36:28.000Z,280.4985337243431
2023-04-16T03:37:31.000Z,282.44965786901565
2023-04-16T03:38:34.000Z,282.9374389051838
2023-04-16T03:39:42.000Z,286.3519061583608
2023-04-16T03:40:44.000Z,283.9130009775201
2023-04-16T03:41:49.000Z,287.3274682306971
2023-04-16T03:42:52.000Z,282.44965786901565
2023-04-16T03:43:54.000Z,285.3763440860245
2023-04-16T03:44:57.000Z,287.3274682306971
2023-04-16T03:46:01.000Z,287.3274682306971
2023-04-16T03:47:04.000Z,286.3519061583608
2023-04-16T03:48:07.000Z,283.9130009775201
2023-04-16T03:49:09.000Z,287.3274682306971
2023-04-16T03:50:12.000Z,285.3763440860245
2023-04-16T03:51:16.000Z,287.3274682306971
2023-04-16T03:52:19.000Z,285.3763440860245
2023-04-16T03:53:22.000Z,285.86412512219266
2023-04-16T03:54:25.000Z,283.42521994135194
2023-04-16T03:55:28.000Z,285.86412512219266
2023-04-16T03:56:31.000Z,287.3274682306971
2023-04-16T03:57:34.000Z,286.3519061583608
2023-04-16T03:58:37.000Z,283.42521994135194
2023-04-16T03:59:40.000Z,285.3763440860245
2023-04-16T04:00:44.000Z,285.3763440860245
2023-04-16T04:01:46.000Z,285.86412512219266
2023-04-16T04:02:50.000Z,286.83968719452895
2023-04-16T04:03:53.000Z,285.86412512219266
2023-04-16T04:04:56.000Z,283.9130009775201
2023-04-16T04:05:59.000Z,287.81524926686524
2023-04-16T04:07:02.000Z,287.81524926686524
2023-04-16T04:08:05.000Z,287.81524926686524
2023-04-16T04:09:08.000Z,287.3274682306971
2023-04-16T04:10:11.000Z,286.3519061583608
2023-04-16T04:11:14.000Z,287.81524926686524
2023-04-16T04:12:18.000Z,288.7908113392015
2023-04-16T04:13:26.000Z,287.81524926686524
2023-04-16T04:14:29.000Z,285.86412512219266
2023-04-16T04:15:32.000Z,285.86412512219266
2023-04-16T04:16:35.000Z,285.3763440860245
2023-04-16T04:17:38.000Z,282.9374389051838
2023-04-16T04:18:41.000Z,283.42521994135194
2023-04-16T04:19:44.000Z,284.8885630498564
2023-04-16T04:20:47.000Z,284.8885630498564
2023-04-16T04:21:49.000Z,280.01075268817493
2023-04-16T04:22:53.000Z,285.3763440860245
2023-04-16T04:23:56.000Z,282.44965786901565
2023-04-16T04:25:04.000Z,285.3763440860245
2023-04-16T04:26:07.000Z,282.9374389051838
2023-04-16T04:27:10.000Z,284.8885630498564
2023-04-16T04:28:13.000Z,284.8885630498564
2023-04-16T04:29:17.000Z,284.8885630498564
2023-04-16T04:30:20.000Z,284.40078201368823
2023-04-16T04:31:23.000Z,280.4985337243431
2023-04-16T04:32:26.000Z,282.9374389051838
2023-04-16T04:33:29.000Z,280.01075268817493
2023-04-16T04:34:32.000Z,283.42521994135194
2023-04-16T04:35:35.000Z,283.42521994135194
2023-04-16T04:36:38.000Z,282.44965786901565
2023-04-16T04:37:41.000Z,282.9374389051838
2023-04-16T04:38:44.000Z,280.9863147605112
2023-04-16T04:39:47.000Z,283.9130009775201
2023-04-16T04:40:50.000Z,282.44965786901565
2023-04-16T04:41:53.000Z,284.8885630498564
2023-04-16T04:42:56.000Z,283.9130009775201
2023-04-16T04:43:59.000Z,284.40078201368823
2023-04-16T04:45:02.000Z,283.9130009775201
2023-04-16T04:46:05.000Z,284.40078201368823
2023-04-16T04:47:08.000Z,284.40078201368823
2023-04-16T04:48:12.000Z,285.86412512219266
2023-04-16T04:49:15.000Z,285.86412512219266
2023-04-16T04:50:18.000Z,284.40078201368823
2023-04-16T04:51:21.000Z,284.40078201368823
2023-04-16T04:52:23.000Z,281.9618768328475
2023-04-16T04:53:26.000Z,280.9863147605112
2023-04-16T04:54:29.000Z,279.5229716520068
2023-04-16T04:55:33.000Z,280.9863147605112
2023-04-16T04:56:36.000Z,281.9618768328475
2023-04-16T04:57:39.000Z,282.44965786901565
2023-04-16T04:58:42.000Z,280.4985337243431
2023-04-16T04:59:45.000Z,282.44965786901565
2023-04-16T05:00:48.000Z,280.4985337243431
2023-04-16T05:01:51.000Z,282.44965786901565
2023-04-16T05:02:54.000Z,282.44965786901565
2023-04-16T05:03:57.000Z,283.9130009775201
2023-04-16T05:05:00.000Z,283.42521994135194
2023-04-16T05:06:03.000Z,283.42521994135194
2023-04-16T05:07:06.000Z,280.4985337243431
2023-04-16T05:08:09.000Z,280.01075268817493
2023-04-16T05:09:12.000Z,284.8885630498564
2023-04-16T05:10:15.000Z,283.9130009775201
2023-04-16T05:11:18.000Z,283.42521994135194
2023-04-16T05:12:21.000Z,283.42521994135194
2023-04-16T05:13:24.000Z,282.9374389051838
2023-04-16T05:14:27.000Z,280.4985337243431
2023-04-16T05:15:30.000Z,281.47409579667936
2023-04-16T05:16:33.000Z,282.44965786901565
2023-04-16T05:17:36.000Z,281.9618768328475
2023-04-16T05:18:39.000Z,280.4985337243431
2023-04-16T05:19:43.000Z,279.5229716520068
2023-04-16T05:20:45.000Z,279.5229716520068
2023-04-16T05:21:48.000Z,280.9863147605112
2023-04-16T05:22:51.000Z,281.47409579667936
2023-04-16T05:23:54.000Z,282.44965786901565
2023-04-16T05:24:57.000Z,282.9374389051838
2023-04-16T05:26:00.000Z,281.9618768328475
2023-04-16T05:27:03.000Z,280.01075268817493
2023-04-16T05:28:06.000Z,282.44965786901565
2023-04-16T05:29:10.000Z,282.9374389051838
2023-04-16T05:30:13.000Z,282.44965786901565
2023-04-16T05:31:16.000Z,280.4985337243431
2023-04-16T05:32:19.000Z,281.9618768328475
2023-04-16T05:33:22.000Z,281.47409579667936
2023-04-16T05:34:25.000Z,282.9374389051838
2023-04-16T05:35:28.000Z,281.47409579667936
2023-04-16T05:36:31.000Z,279.5229716520068
2023-04-16T05:37:34.000Z,281.47409579667936
2023-04-16T05:38:37.000Z,281.47409579667936
2023-04-16T05:39:40.000Z,281.9618768328475
2023-04-16T05:40:43.000Z,278.5474095796705
2023-04-16T05:41:46.000Z,281.47409579667936
2023-04-16T05:42:49.000Z,279.03519061583864
2023-04-16T05:43:52.000Z,279.03519061583864
2023-04-16T05:44:55.000Z,282.44965786901565
2023-04-16T05:45:58.000Z,282.44965786901565
2023-04-16T05:47:01.000Z,282.9374389051838
2023-04-16T05:48:04.000Z,282.9374389051838
2023-04-16T05:49:07.000Z,282.9374389051838
2023-04-16T05:50:10.000Z,282.44965786901565
2023-04-16T05:51:13.000Z,277.5718475073342
2023-04-16T05:52:16.000Z,283.42521994135194
2023-04-16T05:53:19.000Z,283.9130009775201
2023-04-16T05:54:22.000Z,283.9130009775201
2023-04-16T05:55:25.000Z,281.47409579667936
2023-04-16T05:56:28.000Z,281.47409579667936
2023-04-16T05:57:31.000Z,280.4985337243431
2023-04-16T05:58:39.000Z,282.9374389051838
2023-04-16T05:59:42.000Z,281.47409579667936
2023-04-16T06:00:45.000Z,282.9374389051838
2023-04-16T06:01:48.000Z,282.44965786901565
2023-04-16T06:02:51.000Z,277.5718475073342
2023-04-16T06:03:54.000Z,280.4985337243431
2023-04-16T06:04:57.000Z,281.47409579667936
2023-04-16T06:06:00.000Z,284.8885630498564
2023-04-16T06:07:02.000Z,283.42521994135194
2023-04-16T06:08:06.000Z,281.47409579667936
2023-04-16T06:09:09.000Z,284.8885630498564
2023-04-16T06:10:13.000Z,283.9130009775201
2023-04-16T06:11:16.000Z,283.42521994135194
2023-04-16T06:12:19.000Z,283.9130009775201
2023-04-16T06:13:22.000Z,281.9618768328475
2023-04-16T06:14:25.000Z,283.9130009775201
2023-04-16T06:15:28.000Z,281.47409579667936
2023-04-16T06:16:31.000Z,282.9374389051838
2023-04-16T06:17:34.000Z,282.44965786901565
2023-04-16T06:18:37.000Z,280.9863147605112
2023-04-16T06:19:40.000Z,280.01075268817493
2023-04-16T06:20:43.000Z,281.9618768328475
2023-04-16T06:21:46.000Z,283.9130009775201
2023-04-16T06:22:49.000Z,281.47409579667936
2023-04-16T06:23:52.000Z,281.9618768328475
2023-04-16T06:24:55.000Z,279.03519061583864
2023-04-16T06:25:58.000Z,283.42521994135194
2023-04-16T06:27:00.000Z,283.9130009775201
2023-04-16T06:28:03.000Z,282.44965786901565
2023-04-16T06:29:06.000Z,281.9618768328475
2023-04-16T06:30:10.000Z,283.9130009775201
2023-04-16T06:31:13.000Z,284.8885630498564
2023-04-16T06:32:16.000Z,284.40078201368823
2023-04-16T06:33:19.000Z,284.40078201368823
2023-04-16T06:34:22.000Z,284.40078201368823
2023-04-16T06:35:24.000Z,281.47409579667936
2023-04-16T06:36:29.000Z,282.9374389051838
2023-04-16T06:37:32.000Z,282.9374389051838
2023-04-16T06:38:35.000Z,280.9863147605112
2023-04-16T06:39:38.000Z,281.9618768328475
2023-04-16T06:40:41.000Z,282.9374389051838
2023-04-16T06:41:44.000Z,282.9374389051838
2023-04-16T06:42:47.000Z,282.44965786901565
2023-04-16T06:43:50.000Z,280.9863147605112
2023-04-16T06:44:53.000Z,280.9863147605112
2023-04-16T06:45:56.000Z,283.42521994135194
2023-04-16T06:46:59.000Z,285.86412512219266
2023-04-16T06:48:02.000Z,284.40078201368823
2023-04-16T06:49:05.000Z,284.8885630498564
2023-04-16T06:50:08.000Z,284.40078201368823
2023-04-16T06:51:11.000Z,282.44965786901565
2023-04-16T06:52:14.000Z,281.9618768328475
2023-04-16T06:53:17.000Z,285.3763440860245
2023-04-16T06:54:20.000Z,285.3763440860245
2023-04-16T06:55:28.000Z,282.9374389051838
2023-04-16T06:56:33.000Z,281.47409579667936
2023-04-16T06:57:36.000Z,281.9618768328475
2023-04-16T06:58:39.000Z,280.4985337243431
2023-04-16T06:59:47.000Z,282.9374389051838
2023-04-16T07:00:50.000Z,282.9374389051838
2023-04-16T07:01:53.000Z,284.40078201368823
2023-04-16T07:02:56.000Z,282.9374389051838
2023-04-16T07:04:04.000Z,284.40078201368823
2023-04-16T07:05:07.000Z,281.47409579667936
2023-04-16T07:06:10.000Z,281.9618768328475
2023-04-16T07:07:14.000Z,283.9130009775201
2023-04-16T07:08:17.000Z,284.40078201368823
2023-04-16T07:09:20.000Z,283.42521994135194
2023-04-16T07:10:23.000Z,283.9130009775201
2023-04-16T07:11:26.000Z,283.9130009775201
2023-04-16T07:12:29.000Z,283.42521994135194
2023-04-16T07:13:32.000Z,282.9374389051838
2023-04-16T07:14:35.000Z,283.9130009775201
2023-04-16T07:15:38.000Z,281.9618768328475
2023-04-16T07:16:41.000Z,280.9863147605112
2023-04-16T07:17:44.000Z,283.42521994135194
2023-04-16T07:18:47.000Z,283.42521994135194
2023-04-16T07:19:50.000Z,282.44965786901565
2023-04-16T07:20:52.000Z,281.9618768328475
2023-04-16T07:21:55.000Z,283.42521994135194
2023-04-16T07:22:58.000Z,281.9618768328475
2023-04-16T07:24:02.000Z,284.8885630498564
2023-04-16T07:25:05.000Z,284.8885630498564
2023-04-16T07:26:08.000Z,284.8885630498564
2023-04-16T07:27:11.000Z,284.8885630498564
2023-04-16T07:28:14.000Z,282.44965786901565
2023-04-16T07:29:17.000Z,282.44965786901565
2023-04-16T07:30:19.000Z,282.44965786901565
2023-04-16T07:31:22.000Z,284.8885630498564
2023-04-16T07:32:25.000Z,282.44965786901565
2023-04-16T07:33:28.000Z,284.8885630498564
2023-04-16T07:34:31.000Z,283.42521994135194
2023-04-16T07:35:39.000Z,280.4985337243431
2023-04-16T07:36:42.000Z,280.4985337243431
2023-04-16T07:37:45.000Z,282.44965786901565
2023-04-16T07:38:52.000Z,281.9618768328475
2023-04-16T07:39:55.000Z,280.4985337243431
2023-04-16T07:40:59.000Z,283.42521994135194
2023-04-16T07:42:01.000Z,284.40078201368823
2023-04-16T07:43:04.000Z,284.40078201368823
2023-04-16T07:44:07.000Z,284.40078201368823
2023-04-16T07:45:10.000Z,282.44965786901565
2023-04-16T07:46:13.000Z,282.9374389051838
2023-04-16T07:47:15.000Z,284.8885630498564
2023-04-16T07:48:18.000Z,282.44965786901565
2023-04-16T07:49:21.000Z,281.9618768328475
2023-04-16T07:50:24.000Z,283.42521994135194
2023-04-16T07:51:27.000Z,284.40078201368823
2023-04-16T07:52:30.000Z,284.8885630498564
2023-04-16T07:53:33.000Z,283.42521994135194
2023-04-16T07:54:36.000Z,280.9863147605112
2023-04-16T07:55:39.000Z,280.4985337243431
2023-04-16T07:56:42.000Z,282.9374389051838
2023-04-16T07:57:44.000Z,282.9374389051838
2023-04-16T07:58:47.000Z,281.47409579667936
2023-04-16T07:59:50.000Z,281.47409579667936
2023-04-16T08:00:52.000Z,282.9374389051838
2023-04-16T08:01:55.000Z,281.9618768328475
2023-04-16T08:02:58.000Z,282.44965786901565
2023-04-16T08:04:01.000Z,282.9374389051838
2023-04-16T08:05:04.000Z,283.42521994135194
2023-04-16T08:06:06.000Z,283.9130009775201
2023-04-16T08:07:09.000Z,282.9374389051838
2023-04-16T08:08:12.000Z,277.5718475073342
2023-04-16T08:09:15.000Z,281.47409579667936
2023-04-16T08:10:17.000Z,281.47409579667936
2023-04-16T08:11:20.000Z,283.9130009775201
2023-04-16T08:12:23.000Z,284.40078201368823
2023-04-16T08:13:31.000Z,284.8885630498564
2023-04-16T08:14:34.000Z,281.47409579667936
2023-04-16T08:15:37.000Z,283.42521994135194
2023-04-16T08:16:39.000Z,282.44965786901565
2023-04-16T08:17:42.000Z,283.42521994135194
2023-04-16T08:18:45.000Z,284.40078201368823
2023-04-16T08:19:48.000Z,283.9130009775201
2023-04-16T08:20:51.000Z,284.40078201368823
2023-04-16T08:21:53.000Z,283.9130009775201
2023-04-16T08:22:56.000Z,283.42521994135194
2023-04-16T08:23:59.000Z,284.8885630498564
2023-04-16T08:25:02.000Z,280.01075268817493
2023-04-16T08:26:05.000Z,284.8885630498564
2023-04-16T08:27:07.000Z,282.9374389051838
2023-04-16T08:28:10.000Z,281.9618768328475
2023-04-16T08:29:13.000Z,284.8885630498564
2023-04-16T08:30:16.000Z,281.9618768328475
2023-04-16T08:31:19.000Z,284.8885630498564
2023-04-16T08:32:22.000Z,285.86412512219266
2023-04-16T08:33:25.000Z,281.47409579667936
2023-04-16T08:34:28.000Z,284.40078201368823
2023-04-16T08:35:31.000Z,284.40078201368823
2023-04-16T08:36:34.000Z,283.9130009775201
2023-04-16T08:37:38.000Z,280.4985337243431
2023-04-16T08:38:41.000Z,283.42521994135194
2023-04-16T08:39:44.000Z,282.9374389051838
2023-04-16T08:40:47.000Z,284.8885630498564
2023-04-16T08:41:50.000Z,282.44965786901565
2023-04-16T08:42:52.000Z,282.9374389051838
2023-04-16T08:43:55.000Z,282.9374389051838
2023-04-16T08:44:58.000Z,282.44965786901565
2023-04-16T08:46:01.000Z,280.01075268817493
2023-04-16T08:47:04.000Z,284.40078201368823
2023-04-16T08:48:07.000Z,284.40078201368823
2023-04-16T08:49:10.000Z,284.40078201368823
2023-04-16T08:50:12.000Z,284.40078201368823
2023-04-16T08:51:15.000Z,282.9374389051838
2023-04-16T08:52:18.000Z,282.44965786901565
2023-04-16T08:53:21.000Z,284.8885630498564
2023-04-16T08:54:24.000Z,285.3763440860245
2023-04-16T08:55:27.000Z,285.86412512219266
2023-04-16T08:56:30.000Z,285.3763440860245
2023-04-16T08:57:33.000Z,285.86412512219266
2023-04-16T08:58:36.000Z,283.9130009775201
2023-04-16T08:59:38.000Z,284.8885630498564
2023-04-16T09:00:41.000Z,281.47409579667936
2023-04-16T09:01:44.000Z,282.44965786901565
2023-04-16T09:02:47.000Z,284.40078201368823
2023-04-16T09:03:49.000Z,282.9374389051838
2023-04-16T09:04:52.000Z,282.9374389051838
2023-04-16T09:05:55.000Z,284.8885630498564
2023-04-16T09:07:03.000Z,281.9618768328475
2023-04-16T09:08:05.000Z,283.42521994135194
2023-04-16T09:09:08.000Z,286.3519061583608
2023-04-16T09:10:11.000Z,286.3519061583608
2023-04-16T09:11:14.000Z,285.3763440860245
2023-04-16T09:12:16.000Z,286.3519061583608
2023-04-16T09:13:19.000Z,287.81524926686524
2023-04-16T09:14:22.000Z,285.86412512219266
2023-04-16T09:15:25.000Z,285.86412512219266
2023-04-16T09:16:27.000Z,285.3763440860245
2023-04-16T09:17:30.000Z,281.9618768328475
2023-04-16T09:18:33.000Z,283.9130009775201
2023-04-16T09:19:36.000Z,284.8885630498564
2023-04-16T09:20:38.000Z,286.3519061583608
2023-04-16T09:21:41.000Z,284.8885630498564
2023-04-16T09:22:44.000Z,284.8885630498564
2023-04-16T09:23:52.000Z,281.47409579667936
2023-04-16T09:24:54.000Z,282.44965786901565
2023-04-16T09:25:57.000Z,284.40078201368823
2023-04-16T09:27:00.000Z,284.40078201368823
2023-04-16T09:28:03.000Z,284.40078201368823
2023-04-16T09:29:05.000Z,284.40078201368823
2023-04-16T09:30:08.000Z,285.86412512219266
2023-04-16T09:31:10.000Z,287.3274682306971
2023-04-16T09:32:13.000Z,285.86412512219266
2023-04-16T09:33:16.000Z,285.3763440860245
2023-04-16T09:34:19.000Z,285.3763440860245
2023-04-16T09:35:22.000Z,285.3763440860245
2023-04-16T09:36:25.000Z,283.42521994135194
2023-04-16T09:37:27.000Z,282.9374389051838
2023-04-16T09:38:30.000Z,282.9374389051838
2023-04-16T09:39:32.000Z,283.42521994135194